sensor_id;sensor_type;location;lat;lon;timestamp;P1;durP1;ratioP1;P2;durP2;ratioP2
53642;SDS011;39546;45.534;12.048;2023-02-15T00:00:13;37.47;;;28.95;;
53642;SDS011;39546;45.534;12.048;2023-02-15T00:06:15;37.85;;;29.50;;
53642;SDS011;39546;45.534;12.048;2023-02-15T00:12:17;43.90;;;33.40;;
53642;SDS011;39546;45.534;12.048;2023-02-15T00:18:19;40.03;;;30.08;;
53642;SDS011;39546;45.534;12.048;2023-02-15T00:24:21;37.37;;;28.33;;
53642;SDS011;39546;45.534;12.048;2023-02-15T00:30:23;31.62;;;26.60;;
53642;SDS011;39546;45.534;12.048;2023-02-15T00:36:25;38.25;;;29.30;;
53642;SDS011;39546;45.534;12.048;2023-02-15T00:42:27;52.45;;;35.25;;
53642;SDS011;39546;45.534;12.048;2023-02-15T00:48:29;42.33;;;30.95;;
53642;SDS011;39546;45.534;12.048;2023-02-15T00:54:31;41.75;;;31.15;;
53642;SDS011;39546;45.534;12.048;2023-02-15T01:00:36;36.25;;;31.90;;
53642;SDS011;39546;45.534;12.048;2023-02-15T01:06:38;43.63;;;37.80;;
53642;SDS011;39546;45.534;12.048;2023-02-15T01:12:40;65.78;;;47.92;;
53642;SDS011;39546;45.534;12.048;2023-02-15T01:18:42;43.20;;;32.90;;
53642;SDS011;39546;45.534;12.048;2023-02-15T01:24:45;56.37;;;46.33;;
53642;SDS011;39546;45.534;12.048;2023-02-15T01:30:47;41.33;;;33.38;;
53642;SDS011;39546;45.534;12.048;2023-02-15T01:36:51;37.85;;;28.45;;
53642;SDS011;39546;45.534;12.048;2023-02-15T01:42:54;34.25;;;25.77;;
53642;SDS011;39546;45.534;12.048;2023-02-15T01:48:59;31.23;;;26.77;;
53642;SDS011;39546;45.534;12.048;2023-02-15T01:55:06;39.85;;;28.85;;
53642;SDS011;39546;45.534;12.048;2023-02-15T02:01:10;43.83;;;37.72;;
53642;SDS011;39546;45.534;12.048;2023-02-15T02:07:12;32.90;;;27.62;;
53642;SDS011;39546;45.534;12.048;2023-02-15T02:13:17;36.05;;;29.80;;
53642;SDS011;39546;45.534;12.048;2023-02-15T02:25:35;52.17;;;39.13;;
53642;SDS011;39546;45.534;12.048;2023-02-15T02:50:27;54.28;;;41.05;;
53642;SDS011;39546;45.534;12.048;2023-02-15T02:56:38;33.28;;;27.73;;
53642;SDS011;39546;45.534;12.048;2023-02-15T03:02:44;43.80;;;36.20;;
53642;SDS011;39546;45.534;12.048;2023-02-15T03:08:50;31.08;;;26.23;;
53642;SDS011;39546;45.534;12.048;2023-02-15T03:14:58;30.05;;;25.17;;
53642;SDS011;39546;45.534;12.048;2023-02-15T03:21:08;31.25;;;25.15;;
53642;SDS011;39546;45.534;12.048;2023-02-15T03:27:24;27.02;;;20.62;;
53642;SDS011;39546;45.534;12.048;2023-02-15T03:33:29;29.92;;;24.33;;
53642;SDS011;39546;45.534;12.048;2023-02-15T03:46:05;32.05;;;24.92;;
53642;SDS011;39546;45.534;12.048;2023-02-15T03:52:13;32.70;;;26.17;;
53642;SDS011;39546;45.534;12.048;2023-02-15T03:58:17;29.02;;;24.52;;
53642;SDS011;39546;45.534;12.048;2023-02-15T04:04:45;26.20;;;22.30;;
53642;SDS011;39546;45.534;12.048;2023-02-15T04:10:48;28.20;;;24.87;;
53642;SDS011;39546;45.534;12.048;2023-02-15T04:16:57;40.33;;;32.70;;
53642;SDS011;39546;45.534;12.048;2023-02-15T04:23:00;36.72;;;29.42;;
53642;SDS011;39546;45.534;12.048;2023-02-15T04:29:21;50.63;;;38.63;;
53642;SDS011;39546;45.534;12.048;2023-02-15T04:35:24;41.85;;;30.27;;
53642;SDS011;39546;45.534;12.048;2023-02-15T04:41:27;40.45;;;30.58;;
53642;SDS011;39546;45.534;12.048;2023-02-15T04:47:29;36.90;;;31.45;;
53642;SDS011;39546;45.534;12.048;2023-02-15T04:53:31;46.95;;;39.47;;
53642;SDS011;39546;45.534;12.048;2023-02-15T04:59:33;45.05;;;37.20;;
53642;SDS011;39546;45.534;12.048;2023-02-15T05:05:35;44.33;;;32.55;;
53642;SDS011;39546;45.534;12.048;2023-02-15T05:11:37;45.83;;;37.50;;
53642;SDS011;39546;45.534;12.048;2023-02-15T05:17:40;47.20;;;36.03;;
53642;SDS011;39546;45.534;12.048;2023-02-15T05:23:42;46.40;;;35.95;;
53642;SDS011;39546;45.534;12.048;2023-02-15T05:29:44;56.28;;;42.58;;
53642;SDS011;39546;45.534;12.048;2023-02-15T05:35:46;47.72;;;39.15;;
53642;SDS011;39546;45.534;12.048;2023-02-15T05:41:48;52.53;;;42.05;;
53642;SDS011;39546;45.534;12.048;2023-02-15T05:47:50;47.33;;;39.53;;
53642;SDS011;39546;45.534;12.048;2023-02-15T05:53:52;53.55;;;41.30;;
53642;SDS011;39546;45.534;12.048;2023-02-15T05:59:54;54.63;;;41.55;;
53642;SDS011;39546;45.534;12.048;2023-02-15T06:05:57;36.35;;;31.00;;
53642;SDS011;39546;45.534;12.048;2023-02-15T06:11:59;54.45;;;38.65;;
53642;SDS011;39546;45.534;12.048;2023-02-15T06:18:01;61.08;;;41.90;;
53642;SDS011;39546;45.534;12.048;2023-02-15T06:24:03;39.45;;;30.95;;
53642;SDS011;39546;45.534;12.048;2023-02-15T06:30:05;62.50;;;42.85;;
53642;SDS011;39546;45.534;12.048;2023-02-15T06:36:09;61.45;;;42.17;;
53642;SDS011;39546;45.534;12.048;2023-02-15T06:42:11;65.30;;;49.95;;
53642;SDS011;39546;45.534;12.048;2023-02-15T06:48:13;40.03;;;33.08;;
53642;SDS011;39546;45.534;12.048;2023-02-15T06:54:15;43.85;;;33.80;;
53642;SDS011;39546;45.534;12.048;2023-02-15T07:00:17;43.10;;;35.13;;
53642;SDS011;39546;45.534;12.048;2023-02-15T07:06:20;54.45;;;41.17;;
53642;SDS011;39546;45.534;12.048;2023-02-15T07:12:22;55.42;;;44.13;;
53642;SDS011;39546;45.534;12.048;2023-02-15T07:18:42;54.53;;;46.17;;
53642;SDS011;39546;45.534;12.048;2023-02-15T07:24:44;67.15;;;48.55;;
53642;SDS011;39546;45.534;12.048;2023-02-15T07:30:48;58.65;;;47.80;;
53642;SDS011;39546;45.534;12.048;2023-02-15T07:36:51;71.95;;;52.10;;
53642;SDS011;39546;45.534;12.048;2023-02-15T07:42:57;55.35;;;41.50;;
53642;SDS011;39546;45.534;12.048;2023-02-15T07:49:00;58.87;;;47.65;;
53642;SDS011;39546;45.534;12.048;2023-02-15T07:55:02;57.88;;;41.35;;
53642;SDS011;39546;45.534;12.048;2023-02-15T08:01:05;43.20;;;32.30;;
53642;SDS011;39546;45.534;12.048;2023-02-15T08:07:07;60.95;;;45.70;;
53642;SDS011;39546;45.534;12.048;2023-02-15T08:13:09;43.47;;;32.33;;
53642;SDS011;39546;45.534;12.048;2023-02-15T08:19:15;37.15;;;28.02;;
53642;SDS011;39546;45.534;12.048;2023-02-15T08:25:19;37.28;;;30.65;;
53642;SDS011;39546;45.534;12.048;2023-02-15T08:31:21;40.08;;;32.75;;
53642;SDS011;39546;45.534;12.048;2023-02-15T08:37:24;34.33;;;27.83;;
53642;SDS011;39546;45.534;12.048;2023-02-15T08:43:27;25.17;;;21.37;;
53642;SDS011;39546;45.534;12.048;2023-02-15T08:49:29;28.02;;;21.75;;
53642;SDS011;39546;45.534;12.048;2023-02-15T08:55:31;21.58;;;17.48;;
53642;SDS011;39546;45.534;12.048;2023-02-15T09:01:34;23.62;;;17.90;;
53642;SDS011;39546;45.534;12.048;2023-02-15T09:07:36;27.40;;;20.88;;
53642;SDS011;39546;45.534;12.048;2023-02-15T09:13:38;30.17;;;21.95;;
53642;SDS011;39546;45.534;12.048;2023-02-15T09:19:41;25.05;;;19.95;;
53642;SDS011;39546;45.534;12.048;2023-02-15T09:25:43;34.00;;;25.10;;
53642;SDS011;39546;45.534;12.048;2023-02-15T09:31:46;26.67;;;21.58;;
53642;SDS011;39546;45.534;12.048;2023-02-15T09:37:50;26.10;;;20.12;;
53642;SDS011;39546;45.534;12.048;2023-02-15T09:56:35;19.87;;;15.85;;
53642;SDS011;39546;45.534;12.048;2023-02-15T10:03:04;20.75;;;16.10;;
53642;SDS011;39546;45.534;12.048;2023-02-15T10:09:34;27.27;;;20.98;;
53642;SDS011;39546;45.534;12.048;2023-02-15T10:28:06;36.40;;;25.30;;
53642;SDS011;39546;45.534;12.048;2023-02-15T10:34:22;46.60;;;30.37;;
53642;SDS011;39546;45.534;12.048;2023-02-15T10:47:13;19.33;;;14.40;;
53642;SDS011;39546;45.534;12.048;2023-02-15T11:00:10;32.05;;;21.77;;
53642;SDS011;39546;45.534;12.048;2023-02-15T11:06:16;34.17;;;20.77;;
53642;SDS011;39546;45.534;12.048;2023-02-15T11:12:22;25.33;;;18.05;;
53642;SDS011;39546;45.534;12.048;2023-02-15T11:18:34;39.55;;;31.80;;
53642;SDS011;39546;45.534;12.048;2023-02-15T11:24:41;22.40;;;15.15;;
53642;SDS011;39546;45.534;12.048;2023-02-15T11:30:47;30.37;;;20.27;;
53642;SDS011;39546;45.534;12.048;2023-02-15T11:36:58;24.48;;;18.45;;
53642;SDS011;39546;45.534;12.048;2023-02-15T11:49:37;22.15;;;18.12;;
53642;SDS011;39546;45.534;12.048;2023-02-15T11:55:41;25.30;;;19.42;;
53642;SDS011;39546;45.534;12.048;2023-02-15T12:01:47;33.72;;;21.50;;
53642;SDS011;39546;45.534;12.048;2023-02-15T12:07:55;28.83;;;19.27;;
53642;SDS011;39546;45.534;12.048;2023-02-15T12:14:08;21.98;;;15.73;;
53642;SDS011;39546;45.534;12.048;2023-02-15T12:26:24;20.55;;;14.98;;
53642;SDS011;39546;45.534;12.048;2023-02-15T12:32:46;23.42;;;15.88;;
53642;SDS011;39546;45.534;12.048;2023-02-15T12:45:22;24.42;;;15.75;;
53642;SDS011;39546;45.534;12.048;2023-02-15T12:51:27;20.75;;;16.00;;
53642;SDS011;39546;45.534;12.048;2023-02-15T12:57:30;25.85;;;17.15;;
53642;SDS011;39546;45.534;12.048;2023-02-15T13:03:34;24.85;;;16.35;;
53642;SDS011;39546;45.534;12.048;2023-02-15T13:09:39;24.52;;;14.95;;
53642;SDS011;39546;45.534;12.048;2023-02-15T13:15:41;22.85;;;14.68;;
53642;SDS011;39546;45.534;12.048;2023-02-15T13:21:49;24.05;;;16.00;;
53642;SDS011;39546;45.534;12.048;2023-02-15T13:28:03;26.48;;;16.90;;
53642;SDS011;39546;45.534;12.048;2023-02-15T13:34:10;25.50;;;18.12;;
53642;SDS011;39546;45.534;12.048;2023-02-15T13:40:22;19.40;;;15.63;;
53642;SDS011;39546;45.534;12.048;2023-02-15T13:52:42;22.23;;;15.13;;
53642;SDS011;39546;45.534;12.048;2023-02-15T14:05:12;24.10;;;16.48;;
53642;SDS011;39546;45.534;12.048;2023-02-15T14:30:31;17.23;;;12.93;;
53642;SDS011;39546;45.534;12.048;2023-02-15T14:36:36;19.50;;;14.43;;
53642;SDS011;39546;45.534;12.048;2023-02-15T14:48:46;25.33;;;17.37;;
53642;SDS011;39546;45.534;12.048;2023-02-15T14:54:52;25.37;;;17.00;;
53642;SDS011;39546;45.534;12.048;2023-02-15T15:01:03;26.45;;;19.17;;
53642;SDS011;39546;45.534;12.048;2023-02-15T15:25:52;25.37;;;18.20;;
53642;SDS011;39546;45.534;12.048;2023-02-15T15:31:58;26.15;;;17.02;;
53642;SDS011;39546;45.534;12.048;2023-02-15T15:51:18;36.25;;;28.80;;
53642;SDS011;39546;45.534;12.048;2023-02-15T15:57:48;30.40;;;25.30;;
53642;SDS011;39546;45.534;12.048;2023-02-15T16:03:54;36.78;;;26.05;;
53642;SDS011;39546;45.534;12.048;2023-02-15T16:16:39;32.70;;;23.25;;
53642;SDS011;39546;45.534;12.048;2023-02-15T16:22:42;31.75;;;27.62;;
53642;SDS011;39546;45.534;12.048;2023-02-15T16:28:47;30.10;;;25.10;;
53642;SDS011;39546;45.534;12.048;2023-02-15T16:40:54;27.05;;;21.15;;
53642;SDS011;39546;45.534;12.048;2023-02-15T16:46:58;27.55;;;19.67;;
53642;SDS011;39546;45.534;12.048;2023-02-15T16:53:02;21.23;;;16.67;;
53642;SDS011;39546;45.534;12.048;2023-02-15T16:59:14;23.38;;;14.93;;
53642;SDS011;39546;45.534;12.048;2023-02-15T17:05:33;19.77;;;16.27;;
53642;SDS011;39546;45.534;12.048;2023-02-15T17:11:42;21.67;;;17.12;;
53642;SDS011;39546;45.534;12.048;2023-02-15T17:17:45;22.58;;;16.48;;
53642;SDS011;39546;45.534;12.048;2023-02-15T17:23:50;25.30;;;19.05;;
53642;SDS011;39546;45.534;12.048;2023-02-15T17:29:59;25.65;;;19.85;;
53642;SDS011;39546;45.534;12.048;2023-02-15T17:36:19;31.23;;;23.40;;
53642;SDS011;39546;45.534;12.048;2023-02-15T17:42:23;33.63;;;26.30;;
53642;SDS011;39546;45.534;12.048;2023-02-15T17:48:33;36.55;;;28.35;;
53642;SDS011;39546;45.534;12.048;2023-02-15T17:54:37;34.83;;;27.35;;
53642;SDS011;39546;45.534;12.048;2023-02-15T18:01:05;34.45;;;26.90;;
53642;SDS011;39546;45.534;12.048;2023-02-15T18:07:34;35.53;;;27.13;;
53642;SDS011;39546;45.534;12.048;2023-02-15T18:13:57;41.17;;;35.53;;
53642;SDS011;39546;45.534;12.048;2023-02-15T18:20:03;37.65;;;31.02;;
53642;SDS011;39546;45.534;12.048;2023-02-15T18:26:52;38.83;;;27.23;;
53642;SDS011;39546;45.534;12.048;2023-02-15T18:32:55;40.97;;;29.55;;
53642;SDS011;39546;45.534;12.048;2023-02-15T18:38:58;41.17;;;32.90;;
53642;SDS011;39546;45.534;12.048;2023-02-15T18:45:22;35.38;;;27.67;;
53642;SDS011;39546;45.534;12.048;2023-02-15T18:51:44;38.70;;;31.48;;
53642;SDS011;39546;45.534;12.048;2023-02-15T18:58:08;33.63;;;29.50;;
53642;SDS011;39546;45.534;12.048;2023-02-15T19:04:15;47.72;;;37.15;;
53642;SDS011;39546;45.534;12.048;2023-02-15T19:10:18;42.80;;;34.38;;
53642;SDS011;39546;45.534;12.048;2023-02-15T19:16:32;58.90;;;35.30;;
53642;SDS011;39546;45.534;12.048;2023-02-15T19:22:54;52.72;;;34.90;;
53642;SDS011;39546;45.534;12.048;2023-02-15T19:28:59;30.40;;;26.33;;
53642;SDS011;39546;45.534;12.048;2023-02-15T19:35:02;45.12;;;32.83;;
53642;SDS011;39546;45.534;12.048;2023-02-15T19:47:34;30.40;;;23.93;;
53642;SDS011;39546;45.534;12.048;2023-02-15T19:53:36;40.25;;;34.55;;
53642;SDS011;39546;45.534;12.048;2023-02-15T19:59:38;38.33;;;32.45;;
53642;SDS011;39546;45.534;12.048;2023-02-15T20:05:42;34.47;;;28.42;;
53642;SDS011;39546;45.534;12.048;2023-02-15T20:11:45;35.22;;;28.95;;
53642;SDS011;39546;45.534;12.048;2023-02-15T20:17:48;30.95;;;25.73;;
53642;SDS011;39546;45.534;12.048;2023-02-15T20:23:51;34.50;;;28.45;;
53642;SDS011;39546;45.534;12.048;2023-02-15T20:29:53;45.97;;;36.70;;
53642;SDS011;39546;45.534;12.048;2023-02-15T20:35:58;61.22;;;51.15;;
53642;SDS011;39546;45.534;12.048;2023-02-15T20:42:00;37.50;;;27.85;;
53642;SDS011;39546;45.534;12.048;2023-02-15T20:48:03;41.05;;;33.15;;
53642;SDS011;39546;45.534;12.048;2023-02-15T20:54:18;47.00;;;38.33;;
53642;SDS011;39546;45.534;12.048;2023-02-15T21:00:26;37.70;;;30.08;;
53642;SDS011;39546;45.534;12.048;2023-02-15T21:06:31;33.60;;;27.50;;
53642;SDS011;39546;45.534;12.048;2023-02-15T21:12:33;45.03;;;31.12;;
53642;SDS011;39546;45.534;12.048;2023-02-15T21:18:35;36.92;;;28.08;;
53642;SDS011;39546;45.534;12.048;2023-02-15T21:24:47;30.62;;;24.95;;
53642;SDS011;39546;45.534;12.048;2023-02-15T21:30:51;34.25;;;28.62;;
53642;SDS011;39546;45.534;12.048;2023-02-15T21:36:54;42.38;;;33.10;;
53642;SDS011;39546;45.534;12.048;2023-02-15T21:42:57;38.08;;;31.37;;
53642;SDS011;39546;45.534;12.048;2023-02-15T21:49:18;38.63;;;27.70;;
53642;SDS011;39546;45.534;12.048;2023-02-15T21:55:21;44.95;;;32.08;;
53642;SDS011;39546;45.534;12.048;2023-02-15T22:01:25;51.22;;;39.97;;
53642;SDS011;39546;45.534;12.048;2023-02-15T22:07:28;31.95;;;28.73;;
53642;SDS011;39546;45.534;12.048;2023-02-15T22:13:31;44.42;;;30.45;;
53642;SDS011;39546;45.534;12.048;2023-02-15T22:19:34;32.65;;;26.98;;
53642;SDS011;39546;45.534;12.048;2023-02-15T22:25:36;27.17;;;23.02;;
53642;SDS011;39546;45.534;12.048;2023-02-15T22:31:39;28.98;;;23.25;;
53642;SDS011;39546;45.534;12.048;2023-02-15T22:37:41;34.08;;;26.60;;
53642;SDS011;39546;45.534;12.048;2023-02-15T22:43:44;34.45;;;26.12;;
53642;SDS011;39546;45.534;12.048;2023-02-15T22:49:47;88.60;;;53.58;;
53642;SDS011;39546;45.534;12.048;2023-02-15T22:55:50;36.95;;;30.75;;
53642;SDS011;39546;45.534;12.048;2023-02-15T23:01:54;43.35;;;32.20;;
53642;SDS011;39546;45.534;12.048;2023-02-15T23:07:57;54.50;;;44.80;;
53642;SDS011;39546;45.534;12.048;2023-02-15T23:13:59;35.22;;;27.60;;
53642;SDS011;39546;45.534;12.048;2023-02-15T23:20:03;31.85;;;24.40;;
53642;SDS011;39546;45.534;12.048;2023-02-15T23:26:09;37.67;;;28.90;;
53642;SDS011;39546;45.534;12.048;2023-02-15T23:32:21;36.78;;;29.65;;
53642;SDS011;39546;45.534;12.048;2023-02-15T23:38:24;56.17;;;39.83;;
53642;SDS011;39546;45.534;12.048;2023-02-15T23:44:28;67.15;;;52.33;;
53642;SDS011;39546;45.534;12.048;2023-02-15T23:50:31;45.75;;;33.55;;
53642;SDS011;39546;45.534;12.048;2023-02-15T23:56:33;55.60;;;41.50;;
